Time;durP1;ratioP1;P1;durP2;ratioP2;P2;SDS_P1;SDS_P2;PMS_P1;PMS_P2;Temp;Humidity;BMP_temperature;BMP_pressure;BME280_temperature;BME280_humidity;BME280_pressure;Samples;Min_cycle;Max_cycle;Signal;HPM_P1;HPM_P2
2024/05/01 00:02:05;;;;;;;1.50;1.10;;;;;;;;;;5457581;26;20059;-88
2024/05/01 00:04:34;;;;;;;2.30;1.27;;;;;;;;;;5457303;26;20001;-88
2024/05/01 00:07:00;;;;;;;3.55;1.20;;;;;;;;;;5456912;26;19994;-89
2024/05/01 00:09:26;;;;;;;2.42;1.27;;;;;;;;;;5455839;26;20013;-87
2024/05/01 00:11:52;;;;;;;1.75;1.20;;;;;;;;;;5457219;26;20434;-93
2024/05/01 00:14:18;;;;;;;1.20;1.00;;;;;;;;;;5457082;26;20009;-89
2024/05/01 00:16:44;;;;;;;2.20;1.10;;;;;;;;;;5456876;26;19994;-89
2024/05/01 00:19:12;;;;;;;2.47;1.25;;;;;;;;;;5456886;26;20362;-88
2024/05/01 00:21:38;;;;;;;1.48;1.00;;;;;;;;;;5457423;26;19993;-88
2024/05/01 00:24:04;;;;;;;3.70;1.10;;;;;;;;;;5457588;26;20454;-88
2024/05/01 00:26:30;;;;;;;1.63;1.20;;;;;;;;;;5456877;26;20006;-93
2024/05/01 00:28:56;;;;;;;3.83;1.20;;;;;;;;;;5456302;26;20002;-92
2024/05/01 00:31:22;;;;;;;1.05;1.00;;;;;;;;;;5456734;26;20375;-89
2024/05/01 00:33:48;;;;;;;2.80;1.45;;;;;;;;;;5457020;26;19998;-90
2024/05/01 00:36:14;;;;;;;2.50;1.10;;;;;;;;;;5489099;26;19998;-90
2024/05/01 00:38:40;;;;;;;3.78;1.15;;;;;;;;;;5456885;26;20427;-87
2024/05/01 00:41:06;;;;;;;2.30;0.98;;;;;;;;;;5457694;26;20071;-87
2024/05/01 00:43:32;;;;;;;1.17;1.02;;;;;;;;;;5456320;26;19998;-88
2024/05/01 00:45:58;;;;;;;2.20;1.10;;;;;;;;;;5466281;26;20006;-88
2024/05/01 00:48:24;;;;;;;1.30;1.20;;;;;;;;;;5456775;26;19991;-90
2024/05/01 00:50:51;;;;;;;2.25;1.20;;;;;;;;;;5456350;26;20052;-87
2024/05/01 00:53:17;;;;;;;3.97;1.20;;;;;;;;;;5456423;26;19990;-87
2024/05/01 00:55:43;;;;;;;2.45;1.40;;;;;;;;;;5456303;26;20003;-87
2024/05/01 00:58:09;;;;;;;2.85;1.33;;;;;;;;;;5456392;26;19994;-87
2024/05/01 01:00:36;;;;;;;3.80;1.30;;;;;;;;;;5456059;26;19998;-87
2024/05/01 01:03:02;;;;;;;3.45;1.23;;;;;;;;;;5486811;26;20001;-88
2024/05/01 01:05:28;;;;;;;2.83;1.35;;;;;;;;;;5456240;26;19994;-87
2024/05/01 01:07:54;;;;;;;2.60;1.58;;;;;;;;;;5456178;26;20004;-87
2024/05/01 01:10:20;;;;;;;4.28;1.50;;;;;;;;;;5487909;26;19994;-89
2024/05/01 01:12:46;;;;;;;2.42;1.52;;;;;;;;;;5456244;26;19990;-88
2024/05/01 01:15:12;;;;;;;1.77;1.30;;;;;;;;;;5455669;26;20006;-87
2024/05/01 01:17:39;;;;;;;2.45;1.30;;;;;;;;;;5456124;26;19994;-87
2024/05/01 01:20:05;;;;;;;1.60;1.17;;;;;;;;;;5456046;26;20006;-87
2024/05/01 01:22:32;;;;;;;2.47;1.05;;;;;;;;;;5455628;26;21005;-88
2024/05/01 01:25:01;;;;;;;1.38;1.10;;;;;;;;;;5487390;26;19990;-88
2024/05/01 01:27:27;;;;;;;2.88;1.35;;;;;;;;;;5455357;26;20047;-91
2024/05/01 01:29:53;;;;;;;2.35;1.35;;;;;;;;;;5455571;26;20005;-86
2024/05/01 01:32:19;;;;;;;2.80;1.38;;;;;;;;;;5454835;26;20043;-86
2024/05/01 01:34:45;;;;;;;2.60;1.40;;;;;;;;;;5455597;26;19995;-87
2024/05/01 01:37:11;;;;;;;1.88;1.38;;;;;;;;;;5456159;26;19990;-87
2024/05/01 01:39:37;;;;;;;3.63;1.48;;;;;;;;;;5455435;26;20009;-89
2024/05/01 01:42:04;;;;;;;2.03;1.40;;;;;;;;;;5487710;26;20678;-87
2024/05/01 01:44:30;;;;;;;2.38;1.50;;;;;;;;;;5487492;26;20009;-88
2024/05/01 01:46:56;;;;;;;3.08;2.00;;;;;;;;;;5454711;26;19998;-87
2024/05/01 01:49:22;;;;;;;1.60;1.38;;;;;;;;;;5455078;26;19998;-88
2024/05/01 01:51:48;;;;;;;2.03;1.45;;;;;;;;;;5455274;26;19990;-87
2024/05/01 01:54:14;;;;;;;2.97;1.92;;;;;;;;;;5455043;26;20005;-88
2024/05/01 01:56:41;;;;;;;1.45;1.35;;;;;;;;;;5456092;26;19994;-88
2024/05/01 01:59:07;;;;;;;2.75;1.55;;;;;;;;;;5454967;26;19994;-87
2024/05/01 02:01:38;;;;;;;2.83;1.50;;;;;;;;;;5486873;26;20008;-88
2024/05/01 02:04:04;;;;;;;2.00;1.80;;;;;;;;;;5455611;26;20060;-94
2024/05/01 02:06:30;;;;;;;1.92;1.60;;;;;;;;;;5454857;26;20005;-89
2024/05/01 02:08:56;;;;;;;3.53;1.83;;;;;;;;;;5454927;26;19990;-88
2024/05/01 02:11:22;;;;;;;2.13;2.00;;;;;;;;;;5455278;26;19994;-87
2024/05/01 02:13:48;;;;;;;3.13;2.47;;;;;;;;;;5454904;26;20005;-88
2024/05/01 02:16:14;;;;;;;3.75;2.63;;;;;;;;;;5455220;26;20408;-87
2024/05/01 02:18:40;;;;;;;3.08;2.20;;;;;;;;;;5486756;26;20065;-88
2024/05/01 02:21:06;;;;;;;5.00;2.30;;;;;;;;;;5455014;26;19994;-88
2024/05/01 02:23:32;;;;;;;3.03;1.90;;;;;;;;;;5486889;26;20391;-88
2024/05/01 02:25:58;;;;;;;5.25;2.20;;;;;;;;;;5454393;26;20009;-87
2024/05/01 02:28:24;;;;;;;3.65;2.00;;;;;;;;;;5486458;26;19994;-88
2024/05/01 02:30:50;;;;;;;5.20;2.20;;;;;;;;;;5486949;26;19994;-86
2024/05/01 02:33:16;;;;;;;2.72;2.40;;;;;;;;;;5454647;26;19994;-87
2024/05/01 02:35:42;;;;;;;4.57;2.25;;;;;;;;;;5455028;26;20383;-89
2024/05/01 02:38:09;;;;;;;2.28;2.05;;;;;;;;;;5485833;26;20010;-87
2024/05/01 02:40:38;;;;;;;3.88;2.20;;;;;;;;;;5454615;26;20008;-87
2024/05/01 02:43:04;;;;;;;5.03;1.92;;;;;;;;;;5454248;26;19990;-87
2024/05/01 02:45:30;;;;;;;2.97;2.08;;;;;;;;;;5454157;26;20040;-90
2024/05/01 02:47:56;;;;;;;2.00;1.90;;;;;;;;;;5486262;26;19994;-87
2024/05/01 02:50:22;;;;;;;2.83;1.90;;;;;;;;;;5454149;26;20002;-88
2024/05/01 02:52:48;;;;;;;2.72;1.80;;;;;;;;;;5454337;26;20001;-87
2024/05/01 02:55:14;;;;;;;2.45;1.92;;;;;;;;;;5455056;26;20320;-87
2024/05/01 02:57:41;;;;;;;3.28;1.95;;;;;;;;;;5453943;26;19998;-88
2024/05/01 03:00:07;;;;;;;2.10;1.80;;;;;;;;;;5486315;26;20129;-88
2024/05/01 03:02:33;;;;;;;2.63;1.80;;;;;;;;;;5454118;26;19994;-87
2024/05/01 03:04:59;;;;;;;2.20;2.00;;;;;;;;;;5453404;26;20391;-88
2024/05/01 03:07:25;;;;;;;3.70;2.17;;;;;;;;;;5453807;26;20039;-89
2024/05/01 03:09:51;;;;;;;2.13;1.90;;;;;;;;;;5486170;26;20448;-88
2024/05/01 03:12:17;;;;;;;2.97;2.20;;;;;;;;;;5454717;26;20026;-87
2024/05/01 03:14:43;;;;;;;2.13;1.95;;;;;;;;;;5455203;26;20018;-87
2024/05/01 03:17:09;;;;;;;4.47;2.00;;;;;;;;;;5453959;26;19990;-88
2024/05/01 03:19:35;;;;;;;4.35;2.10;;;;;;;;;;5485620;26;20043;-88
2024/05/01 03:22:01;;;;;;;2.92;1.80;;;;;;;;;;5453306;26;20334;-88
2024/05/01 03:24:28;;;;;;;2.05;1.95;;;;;;;;;;5485857;26;19998;-87
2024/05/01 03:26:54;;;;;;;2.50;1.92;;;;;;;;;;5456824;26;20323;-87
2024/05/01 03:29:20;;;;;;;3.00;1.83;;;;;;;;;;5457713;26;19998;-87
2024/05/01 03:31:46;;;;;;;3.53;1.90;;;;;;;;;;5458137;26;20443;-87
2024/05/01 03:34:12;;;;;;;2.03;1.90;;;;;;;;;;5457579;26;20005;-88
2024/05/01 03:36:38;;;;;;;4.35;2.20;;;;;;;;;;5457450;26;20334;-88
2024/05/01 03:39:04;;;;;;;2.45;2.25;;;;;;;;;;5457102;26;20057;-87
2024/05/01 03:41:30;;;;;;;2.15;1.95;;;;;;;;;;5456905;26;20009;-88
2024/05/01 03:43:56;;;;;;;2.45;2.25;;;;;;;;;;5457345;26;20054;-88
2024/05/01 03:46:22;;;;;;;2.90;2.05;;;;;;;;;;5456663;26;20002;-88
2024/05/01 03:48:48;;;;;;;2.13;1.92;;;;;;;;;;5457667;26;19994;-88
2024/05/01 03:51:14;;;;;;;2.95;2.10;;;;;;;;;;5457086;26;19998;-87
2024/05/01 03:53:40;;;;;;;2.30;2.05;;;;;;;;;;5456634;26;19998;-92
2024/05/01 03:56:06;;;;;;;3.47;1.92;;;;;;;;;;5456786;26;20010;-87
2024/05/01 03:58:32;;;;;;;3.03;2.20;;;;;;;;;;5456557;26;20395;-87
2024/05/01 04:00:58;;;;;;;3.75;2.17;;;;;;;;;;5456860;26;20010;-87
2024/05/01 04:03:24;;;;;;;5.28;2.20;;;;;;;;;;5456687;26;20006;-87
2024/05/01 04:05:50;;;;;;;2.97;2.00;;;;;;;;;;5489653;26;20036;-87
2024/05/01 04:08:18;;;;;;;2.63;2.10;;;;;;;;;;5457579;26;19998;-88
2024/05/01 04:10:44;;;;;;;2.17;1.98;;;;;;;;;;5457165;26;20005;-87
2024/05/01 04:13:10;;;;;;;2.45;1.95;;;;;;;;;;5457065;26;19994;-87
2024/05/01 04:15:36;;;;;;;3.03;2.03;;;;;;;;;;5456949;26;20006;-87
2024/05/01 04:18:03;;;;;;;2.20;2.00;;;;;;;;;;5488282;26;20350;-87
2024/05/01 04:20:29;;;;;;;3.95;1.90;;;;;;;;;;5456653;26;20030;-92
2024/05/01 04:22:55;;;;;;;1.90;1.80;;;;;;;;;;5457032;26;20430;-89
2024/05/01 04:25:24;;;;;;;2.72;2.00;;;;;;;;;;5457241;26;20004;-87
2024/05/01 04:27:50;;;;;;;2.22;1.95;;;;;;;;;;5457251;26;20033;-88
2024/05/01 04:30:16;;;;;;;2.45;2.00;;;;;;;;;;5455946;26;20078;-87
2024/05/01 04:32:42;;;;;;;2.30;2.10;;;;;;;;;;5456699;26;20006;-87
2024/05/01 04:35:08;;;;;;;3.22;2.30;;;;;;;;;;5456216;26;20443;-87
2024/05/01 04:37:34;;;;;;;3.42;2.33;;;;;;;;;;5488112;26;19994;-88
2024/05/01 04:40:01;;;;;;;4.35;2.30;;;;;;;;;;5456644;26;20005;-92
2024/05/01 04:42:27;;;;;;;4.22;2.38;;;;;;;;;;5456454;26;20039;-87
2024/05/01 04:44:53;;;;;;;2.85;2.53;;;;;;;;;;5456713;26;20010;-88
2024/05/01 04:47:21;;;;;;;3.25;2.60;;;;;;;;;;5456857;26;19998;-88
2024/05/01 04:49:47;;;;;;;3.65;2.70;;;;;;;;;;5456335;26;20001;-87
2024/05/01 04:52:13;;;;;;;2.60;2.40;;;;;;;;;;5456316;26;20316;-88
2024/05/01 04:54:40;;;;;;;2.30;2.10;;;;;;;;;;5456095;26;19994;-88
2024/05/01 04:57:06;;;;;;;3.00;2.35;;;;;;;;;;5455960;26;20005;-88
2024/05/01 04:59:32;;;;;;;2.85;2.20;;;;;;;;;;5456120;26;19994;-88
2024/05/01 05:01:58;;;;;;;2.28;2.08;;;;;;;;;;5456271;26;19998;-89
2024/05/01 05:04:24;;;;;;;2.40;2.20;;;;;;;;;;5456767;26;20315;-88
2024/05/01 05:06:50;;;;;;;2.50;2.30;;;;;;;;;;5455827;26;20334;-88
2024/05/01 05:09:16;;;;;;;2.25;2.05;;;;;;;;;;5456243;26;19998;-88
2024/05/01 05:11:42;;;;;;;2.58;2.30;;;;;;;;;;5455877;26;20006;-88
2024/05/01 05:14:11;;;;;;;2.35;2.15;;;;;;;;;;5455224;26;20062;-87
2024/05/01 05:16:37;;;;;;;2.90;2.20;;;;;;;;;;5455428;26;19998;-90
2024/05/01 05:19:03;;;;;;;2.00;1.90;;;;;;;;;;5455993;26;20307;-88
2024/05/01 05:21:30;;;;;;;3.75;1.80;;;;;;;;;;5453454;26;20013;-89
2024/05/01 05:23:56;;;;;;;2.47;1.85;;;;;;;;;;5455551;26;20002;-87
2024/05/01 05:26:22;;;;;;;2.53;2.33;;;;;;;;;;5456614;26;20009;-90
2024/05/01 05:28:48;;;;;;;3.05;2.60;;;;;;;;;;5455654;26;20034;-89
2024/05/01 05:31:14;;;;;;;3.20;2.50;;;;;;;;;;5487194;26;20009;-88
2024/05/01 05:33:47;;;;;;;3.60;2.40;;;;;;;;;;5455811;26;20001;-89
2024/05/01 05:36:13;;;;;;;2.60;2.40;;;;;;;;;;5455280;26;19998;-88
2024/05/01 05:38:39;;;;;;;3.22;2.50;;;;;;;;;;5455877;26;20503;-87
2024/05/01 05:41:05;;;;;;;3.05;2.30;;;;;;;;;;5455396;26;20005;-92
2024/05/01 05:43:31;;;;;;;2.53;2.33;;;;;;;;;;5455059;26;20470;-87
2024/05/01 05:45:57;;;;;;;3.08;2.10;;;;;;;;;;5454963;26;20026;-92
2024/05/01 05:48:23;;;;;;;3.13;2.30;;;;;;;;;;5455037;26;20460;-87
2024/05/01 05:50:49;;;;;;;8.95;2.33;;;;;;;;;;5455017;26;20009;-88
2024/05/01 05:53:15;;;;;;;2.58;2.38;;;;;;;;;;5454906;26;20077;-87
2024/05/01 05:55:41;;;;;;;2.90;2.08;;;;;;;;;;5455163;26;20454;-88
2024/05/01 05:58:07;;;;;;;2.20;2.00;;;;;;;;;;5453864;26;20486;-88
2024/05/01 06:00:33;;;;;;;2.38;2.17;;;;;;;;;;5454521;26;19998;-87
2024/05/01 06:02:59;;;;;;;2.30;2.10;;;;;;;;;;5454376;26;20002;-88
2024/05/01 06:05:25;;;;;;;2.03;1.80;;;;;;;;;;5455543;26;20383;-88
2024/05/01 06:07:51;;;;;;;2.15;1.92;;;;;;;;;;5454507;26;20013;-88
2024/05/01 06:10:17;;;;;;;3.13;1.80;;;;;;;;;;5455035;26;20187;-87
2024/05/01 06:12:44;;;;;;;3.10;1.90;;;;;;;;;;5453921;26;19998;-88
2024/05/01 06:15:10;;;;;;;2.03;1.73;;;;;;;;;;5454672;26;20446;-88
2024/05/01 06:17:36;;;;;;;1.95;1.75;;;;;;;;;;5454230;26;20002;-88
2024/05/01 06:20:02;;;;;;;3.30;1.70;;;;;;;;;;5454481;26;19998;-89
2024/05/01 06:22:28;;;;;;;1.73;1.60;;;;;;;;;;5455487;26;20074;-88
2024/05/01 06:24:55;;;;;;;2.80;1.38;;;;;;;;;;5455627;26;19998;-88
2024/05/01 06:27:21;;;;;;;2.13;1.58;;;;;;;;;;5486373;26;19994;-87
2024/05/01 06:29:47;;;;;;;2.10;1.50;;;;;;;;;;5454711;26;20077;-87
2024/05/01 06:32:13;;;;;;;1.40;1.30;;;;;;;;;;5454274;26;20002;-88
2024/05/01 06:34:39;;;;;;;2.97;1.30;;;;;;;;;;5454564;26;20329;-87
2024/05/01 06:37:05;;;;;;;1.30;1.20;;;;;;;;;;5454433;26;20002;-89
2024/05/01 06:39:31;;;;;;;2.50;1.23;;;;;;;;;;5454565;26;20010;-89
2024/05/01 06:41:57;;;;;;;1.50;1.33;;;;;;;;;;5454331;26;20013;-90
2024/05/01 06:44:23;;;;;;;3.83;2.00;;;;;;;;;;5454173;26;20342;-88
2024/05/01 06:46:52;;;;;;;1.70;1.60;;;;;;;;;;5454036;26;20256;-89
2024/05/01 06:49:18;;;;;;;1.75;1.65;;;;;;;;;;5453580;26;20009;-88
2024/05/01 06:51:45;;;;;;;2.55;1.90;;;;;;;;;;5481337;26;20150;-88
2024/05/01 06:54:11;;;;;;;1.98;1.80;;;;;;;;;;5454105;26;19998;-89
2024/05/01 06:56:36;;;;;;;2.85;1.80;;;;;;;;;;5454370;26;20152;-94
2024/05/01 06:59:04;;;;;;;5.55;1.88;;;;;;;;;;5454328;26;19998;-90
2024/05/01 07:01:30;;;;;;;1.50;1.40;;;;;;;;;;5456599;26;19998;-90
2024/05/01 07:03:56;;;;;;;1.63;1.30;;;;;;;;;;5458385;26;20446;-88
2024/05/01 07:06:22;;;;;;;1.63;1.30;;;;;;;;;;5489063;26;20006;-88
2024/05/01 07:08:48;;;;;;;1.92;1.30;;;;;;;;;;5457773;26;19998;-88
2024/05/01 07:11:14;;;;;;;2.50;1.40;;;;;;;;;;5457262;26;20330;-88
2024/05/01 07:13:40;;;;;;;2.25;1.55;;;;;;;;;;5489548;26;20017;-87
2024/05/01 07:16:07;;;;;;;1.52;1.30;;;;;;;;;;5457451;26;19994;-88
2024/05/01 07:18:33;;;;;;;2.05;1.35;;;;;;;;;;5456570;26;20026;-89
2024/05/01 07:20:59;;;;;;;4.18;1.42;;;;;;;;;;5458552;26;20331;-89
2024/05/01 07:23:25;;;;;;;1.40;1.20;;;;;;;;;;5489800;26;20068;-88
2024/05/01 07:25:51;;;;;;;1.42;1.23;;;;;;;;;;5441801;26;20248;-88
2024/05/01 07:28:17;;;;;;;3.38;1.50;;;;;;;;;;5447234;26;20034;-87
2024/05/01 07:30:43;;;;;;;2.38;1.20;;;;;;;;;;5456725;26;20506;-88
2024/05/01 07:33:10;;;;;;;1.73;1.20;;;;;;;;;;5456688;26;19994;-88
2024/05/01 07:35:36;;;;;;;3.45;1.13;;;;;;;;;;5457101;26;20074;-90
2024/05/01 07:38:02;;;;;;;1.55;1.30;;;;;;;;;;5457499;26;19998;-88
2024/05/01 07:40:30;;;;;;;2.08;1.27;;;;;;;;;;5457594;26;20013;-87
2024/05/01 07:42:56;;;;;;;2.10;1.48;;;;;;;;;;5488569;26;20070;-88
2024/05/01 07:45:22;;;;;;;1.20;1.10;;;;;;;;;;5457246;26;20002;-91
2024/05/01 07:47:47;;;;;;;1.42;1.33;;;;;;;;;;5457584;26;20458;-88
2024/05/01 07:50:15;;;;;;;2.30;1.20;;;;;;;;;;5456799;26;20006;-87
2024/05/01 07:52:40;;;;;;;1.40;1.30;;;;;;;;;;5482135;26;19998;-90
2024/05/01 07:55:07;;;;;;;2.15;1.40;;;;;;;;;;5483400;26;20342;-86
2024/05/01 07:57:33;;;;;;;1.45;1.10;;;;;;;;;;5465200;26;19998;-93
2024/05/01 07:59:59;;;;;;;1.77;1.10;;;;;;;;;;5458207;26;20014;-87
2024/05/01 08:02:25;;;;;;;1.55;1.20;;;;;;;;;;5457035;26;20013;-87
2024/05/01 08:04:51;;;;;;;1.02;1.00;;;;;;;;;;5456449;26;19994;-88
2024/05/01 08:07:17;;;;;;;1.42;1.23;;;;;;;;;;5455605;26;20029;-88
2024/05/01 08:09:45;;;;;;;1.50;1.20;;;;;;;;;;5445216;26;20095;-88
2024/05/01 08:12:11;;;;;;;2.38;1.40;;;;;;;;;;5433227;26;19998;-92
2024/05/01 08:14:37;;;;;;;2.08;1.30;;;;;;;;;;5456761;26;20066;-88
2024/05/01 08:17:03;;;;;;;3.15;1.42;;;;;;;;;;5455951;26;19998;-88
2024/05/01 08:19:29;;;;;;;1.90;1.33;;;;;;;;;;5458530;26;20013;-92
2024/05/01 08:21:55;;;;;;;1.60;1.13;;;;;;;;;;5462749;26;19994;-92
2024/05/01 08:24:21;;;;;;;1.25;1.00;;;;;;;;;;5456677;26;20495;-93
2024/05/01 08:26:47;;;;;;;1.50;1.10;;;;;;;;;;5459728;26;19990;-87
2024/05/01 08:29:13;;;;;;;2.05;1.00;;;;;;;;;;5464976;26;20342;-90
2024/05/01 08:31:39;;;;;;;2.25;1.10;;;;;;;;;;5456165;26;19994;-93
2024/05/01 08:34:05;;;;;;;1.85;1.10;;;;;;;;;;5456579;26;20009;-92
2024/05/01 08:36:31;;;;;;;1.52;1.20;;;;;;;;;;5457069;26;20388;-88
2024/05/01 08:38:57;;;;;;;2.05;1.40;;;;;;;;;;5455659;26;19998;-88
2024/05/01 08:41:26;;;;;;;1.52;1.20;;;;;;;;;;5455849;26;20682;-89
2024/05/01 08:43:52;;;;;;;3.58;2.80;;;;;;;;;;5455535;26;20095;-92
2024/05/01 08:46:18;;;;;;;2.83;1.60;;;;;;;;;;5447296;26;20409;-89
2024/05/01 08:48:47;;;;;;;1.27;1.17;;;;;;;;;;5437920;26;20002;-89
2024/05/01 08:51:13;;;;;;;2.58;1.20;;;;;;;;;;5479618;26;19985;-90
2024/05/01 08:53:45;;;;;;;2.92;1.35;;;;;;;;;;5453791;26;1012284;-88
2024/05/01 08:56:11;;;;;;;1.80;1.20;;;;;;;;;;5475725;26;19994;-87
2024/05/01 08:58:38;;;;;;;3.03;1.20;;;;;;;;;;5470289;26;20002;-88
2024/05/01 09:01:04;;;;;;;2.55;1.25;;;;;;;;;;5456376;26;20074;-88
2024/05/01 09:03:30;;;;;;;1.20;1.00;;;;;;;;;;5485029;26;20013;-90
2024/05/01 09:05:56;;;;;;;3.28;1.10;;;;;;;;;;5469101;26;20066;-88
2024/05/01 09:08:23;;;;;;;2.20;1.02;;;;;;;;;;5455622;26;20014;-88
2024/05/01 09:10:49;;;;;;;1.45;0.90;;;;;;;;;;5455797;26;20025;-91
2024/05/01 09:13:15;;;;;;;3.45;1.00;;;;;;;;;;5456877;26;20005;-89
2024/05/01 09:15:41;;;;;;;0.95;0.88;;;;;;;;;;5455982;26;19990;-89
2024/05/01 09:18:17;;;;;;;1.83;1.10;;;;;;;;;;5455496;26;20025;-88
2024/05/01 09:20:53;;;;;;;3.47;1.30;;;;;;;;;;5455259;26;19998;-90
2024/05/01 09:23:22;;;;;;;1.10;0.95;;;;;;;;;;5428387;26;20070;-89
2024/05/01 09:25:48;;;;;;;8.98;1.60;;;;;;;;;;5420079;26;20002;-89
2024/05/01 09:28:14;;;;;;;2.88;1.17;;;;;;;;;;5419847;26;19994;-88
2024/05/01 09:30:42;;;;;;;4.55;1.20;;;;;;;;;;5419146;26;19995;-89
2024/05/01 09:33:08;;;;;;;1.83;1.15;;;;;;;;;;5420165;26;20454;-90
2024/05/01 09:35:34;;;;;;;2.17;1.20;;;;;;;;;;5420636;26;20022;-89
2024/05/01 09:38:03;;;;;;;9.07;1.05;;;;;;;;;;5420050;26;20006;-91
2024/05/01 09:40:33;;;;;;;3.53;0.90;;;;;;;;;;5421091;26;20320;-92
2024/05/01 09:43:02;;;;;;;2.28;1.00;;;;;;;;;;5459460;26;19993;-89
2024/05/01 09:45:28;;;;;;;1.95;0.93;;;;;;;;;;5524830;26;19997;-91
2024/05/01 09:47:59;;;;;;;2.50;1.05;;;;;;;;;;5492229;26;20004;-89
2024/05/01 09:50:26;;;;;;;2.17;0.90;;;;;;;;;;5492324;26;20001;-89
2024/05/01 09:52:52;;;;;;;2.53;1.02;;;;;;;;;;5484858;26;19994;-87
2024/05/01 09:55:18;;;;;;;4.78;0.80;;;;;;;;;;5488305;26;20007;-90
2024/05/01 09:57:46;;;;;;;2.65;1.08;;;;;;;;;;5492116;26;20009;-90
2024/05/01 10:00:14;;;;;;;2.55;1.02;;;;;;;;;;5473205;26;19998;-90
2024/05/01 10:02:41;;;;;;;3.57;1.10;;;;;;;;;;5455513;26;20005;-90
2024/05/01 10:05:09;;;;;;;8.57;0.90;;;;;;;;;;5456249;26;20227;-90
2024/05/01 10:08:05;;;;;;;2.72;0.82;;;;;;;;;;5456700;26;19990;-90
2024/05/01 10:10:33;;;;;;;2.33;1.00;;;;;;;;;;5434452;26;20488;-92
2024/05/01 10:12:59;;;;;;;4.18;1.10;;;;;;;;;;5454741;26;19990;-88
2024/05/01 10:15:45;;;;;;;1.38;0.80;;;;;;;;;;5455308;26;20091;-88
2024/05/01 10:18:11;;;;;;;2.47;1.00;;;;;;;;;;5455119;26;20039;-89
2024/05/01 10:21:08;;;;;;;2.28;1.00;;;;;;;;;;5455383;26;20329;-88
2024/05/01 10:23:34;;;;;;;3.72;1.00;;;;;;;;;;5427136;26;19998;-90
2024/05/01 10:26:01;;;;;;;5.38;1.08;;;;;;;;;;5455078;26;19998;-88
2024/05/01 10:28:28;;;;;;;1.05;0.80;;;;;;;;;;5454886;26;20408;-89
2024/05/01 10:31:04;;;;;;;3.83;1.17;;;;;;;;;;5455280;26;20059;-89
2024/05/01 10:33:30;;;;;;;1.23;1.08;;;;;;;;;;5455370;26;20001;-90
2024/05/01 10:35:57;;;;;;;2.08;1.00;;;;;;;;;;5454318;26;19999;-89
2024/05/01 10:38:26;;;;;;;1.02;0.90;;;;;;;;;;5454858;26;19990;-89
2024/05/01 10:40:52;;;;;;;1.58;1.02;;;;;;;;;;5454950;26;20005;-91
2024/05/01 10:43:18;;;;;;;3.65;1.02;;;;;;;;;;5454677;26;20014;-91
2024/05/01 10:45:44;;;;;;;2.15;1.00;;;;;;;;;;5454709;26;20026;-88
2024/05/01 10:48:10;;;;;;;1.20;0.80;;;;;;;;;;5455243;26;19998;-89
2024/05/01 10:50:36;;;;;;;2.15;1.08;;;;;;;;;;5454618;26;20446;-89
2024/05/01 10:53:02;;;;;;;2.28;1.10;;;;;;;;;;5454352;26;20009;-90
2024/05/01 10:55:29;;;;;;;2.30;0.98;;;;;;;;;;5454174;26;19990;-89
2024/05/01 10:58:01;;;;;;;2.58;1.10;;;;;;;;;;5454478;26;20434;-89
2024/05/01 11:00:28;;;;;;;2.33;0.98;;;;;;;;;;5453904;26;19994;-89
2024/05/01 11:02:54;;;;;;;1.50;1.00;;;;;;;;;;5453602;26;19998;-88
2024/05/01 11:05:20;;;;;;;2.53;1.27;;;;;;;;;;5469715;26;20074;-89
2024/05/01 11:07:53;;;;;;;3.72;1.17;;;;;;;;;;5490058;26;20021;-88
2024/05/01 11:10:20;;;;;;;4.28;1.20;;;;;;;;;;5454474;26;20027;-88
2024/05/01 11:12:53;;;;;;;1.95;1.10;;;;;;;;;;5453985;26;20035;-90
2024/05/01 11:15:19;;;;;;;3.88;1.30;;;;;;;;;;5454540;26;20001;-88
2024/05/01 11:17:46;;;;;;;1.75;1.20;;;;;;;;;;5454629;26;19994;-89
2024/05/01 11:20:15;;;;;;;3.28;1.48;;;;;;;;;;5454507;26;20462;-90
2024/05/01 11:22:41;;;;;;;3.53;1.55;;;;;;;;;;5454793;26;19990;-88
2024/05/01 11:25:07;;;;;;;1.85;1.27;;;;;;;;;;5454093;26;20348;-87
2024/05/01 11:27:33;;;;;;;2.15;1.20;;;;;;;;;;5453558;26;20369;-88
2024/05/01 11:29:59;;;;;;;2.58;1.27;;;;;;;;;;5452755;26;19990;-89
2024/05/01 11:32:25;;;;;;;5.57;1.10;;;;;;;;;;5452824;26;19994;-89
2024/05/01 11:34:51;;;;;;;2.60;1.20;;;;;;;;;;5454118;26;20001;-89
2024/05/01 11:37:17;;;;;;;1.73;1.30;;;;;;;;;;5452852;26;20070;-90
2024/05/01 11:39:43;;;;;;;5.40;1.23;;;;;;;;;;5453708;26;19990;-90
2024/05/01 11:42:09;;;;;;;2.28;1.27;;;;;;;;;;5454339;26;20002;-89
2024/05/01 11:44:35;;;;;;;3.85;1.35;;;;;;;;;;5453644;26;19998;-91
2024/05/01 11:47:02;;;;;;;4.10;1.50;;;;;;;;;;5455112;26;20005;-90
2024/05/01 11:49:28;;;;;;;2.15;1.40;;;;;;;;;;5456744;26;20001;-89
2024/05/01 11:51:54;;;;;;;5.35;1.48;;;;;;;;;;5456528;26;19997;-88
2024/05/01 11:54:20;;;;;;;3.10;1.60;;;;;;;;;;5456562;26;20000;-89
2024/05/01 11:56:49;;;;;;;5.28;1.40;;;;;;;;;;5456658;26;20457;-88
2024/05/01 11:59:15;;;;;;;4.35;1.30;;;;;;;;;;5457014;26;20438;-89
2024/05/01 12:01:41;;;;;;;3.58;1.42;;;;;;;;;;5457672;26;20009;-87
2024/05/01 12:04:07;;;;;;;3.45;1.17;;;;;;;;;;5456584;26;20009;-90
2024/05/01 12:06:33;;;;;;;3.80;1.35;;;;;;;;;;5456395;26;20005;-88
2024/05/01 12:09:02;;;;;;;3.88;1.42;;;;;;;;;;5456588;26;20010;-88
2024/05/01 12:11:28;;;;;;;5.55;1.50;;;;;;;;;;5455887;26;20443;-89
2024/05/01 12:13:54;;;;;;;4.40;1.50;;;;;;;;;;5489106;26;19998;-88
2024/05/01 12:16:21;;;;;;;3.28;1.42;;;;;;;;;;5457889;26;20038;-90
2024/05/01 12:18:47;;;;;;;4.45;1.60;;;;;;;;;;5456789;26;19998;-89
2024/05/01 12:21:14;;;;;;;5.13;1.58;;;;;;;;;;5459179;26;20009;-93
2024/05/01 12:23:41;;;;;;;2.30;1.45;;;;;;;;;;5457889;26;20012;-90
2024/05/01 12:26:14;;;;;;;1.65;1.38;;;;;;;;;;5489595;26;20002;-92
2024/05/01 12:28:40;;;;;;;2.05;1.52;;;;;;;;;;5457324;26;19994;-89
2024/05/01 12:31:29;;;;;;;6.18;1.40;;;;;;;;;;5456727;26;19994;-92
2024/05/01 12:33:55;;;;;;;5.75;1.58;;;;;;;;;;5442717;26;19998;-87
2024/05/01 12:36:21;;;;;;;3.38;1.60;;;;;;;;;;5456352;26;20434;-89
2024/05/01 12:38:48;;;;;;;2.40;1.63;;;;;;;;;;5487610;26;20175;-91
2024/05/01 12:41:17;;;;;;;3.80;1.70;;;;;;;;;;5457067;26;20023;-87
2024/05/01 12:43:47;;;;;;;4.05;1.38;;;;;;;;;;5457201;26;19999;-87
2024/05/01 12:46:23;;;;;;;5.28;1.60;;;;;;;;;;5456984;26;20068;-88
2024/05/01 12:48:56;;;;;;;3.20;1.50;;;;;;;;;;5455967;26;20010;-89
2024/05/01 12:51:27;;;;;;;3.35;1.48;;;;;;;;;;5456782;26;20002;-91
2024/05/01 12:53:53;;;;;;;1.70;1.30;;;;;;;;;;5458302;26;19998;-92
2024/05/01 12:56:40;;;;;;;6.38;1.63;;;;;;;;;;5457293;26;20009;-91
2024/05/01 12:59:07;;;;;;;2.83;1.45;;;;;;;;;;5455551;26;19994;-90
2024/05/01 13:01:36;;;;;;;4.05;1.50;;;;;;;;;;5457810;26;19994;-92
2024/05/01 13:04:02;;;;;;;1.75;1.33;;;;;;;;;;5460495;26;20005;-92
2024/05/01 13:06:30;;;;;;;3.13;1.88;;;;;;;;;;5456756;26;19998;-90
2024/05/01 13:08:56;;;;;;;;;;;;;;;;;;5455556;26;20334;-87
2024/05/01 13:11:26;;;;;;;5.93;1.67;;;;;;;;;;5456231;26;19924;-89
2024/05/01 13:13:53;;;;;;;4.47;1.50;;;;;;;;;;5455818;26;20001;-88
2024/05/01 13:16:28;;;;;;;3.30;1.30;;;;;;;;;;5454693;26;20010;-88
2024/05/01 13:18:54;;;;;;;5.20;1.60;;;;;;;;;;5455332;26;19997;-86
2024/05/01 13:21:20;;;;;;;2.60;1.67;;;;;;;;;;5487097;26;20010;-88
2024/05/01 13:23:47;;;;;;;5.78;1.50;;;;;;;;;;5461462;26;20007;-86
2024/05/01 13:26:23;;;;;;;4.22;1.50;;;;;;;;;;5485538;26;20450;-86
2024/05/01 13:28:50;;;;;;;2.58;1.40;;;;;;;;;;5472883;26;20367;-85
2024/05/01 13:31:20;;;;;;;3.97;1.20;;;;;;;;;;5456059;26;20422;-88
2024/05/01 13:33:50;;;;;;;5.40;1.60;;;;;;;;;;5455674;26;20316;-89
2024/05/01 13:36:19;;;;;;;3.65;1.38;;;;;;;;;;5487507;26;20030;-88
2024/05/01 13:38:49;;;;;;;3.22;1.42;;;;;;;;;;5423364;26;20528;-89
2024/05/01 13:41:16;;;;;;;4.60;1.35;;;;;;;;;;5450695;26;20003;-88
2024/05/01 13:43:45;;;;;;;6.97;1.70;;;;;;;;;;5419678;26;20013;-88
2024/05/01 13:46:19;;;;;;;4.28;1.63;;;;;;;;;;5419120;26;20342;-89
2024/05/01 13:48:45;;;;;;;4.18;1.30;;;;;;;;;;5420261;26;20003;-90
2024/05/01 13:51:15;;;;;;;3.70;1.58;;;;;;;;;;5450756;26;20014;-90
2024/05/01 13:53:42;;;;;;;2.58;1.30;;;;;;;;;;5450816;26;19998;-89
2024/05/01 13:56:27;;;;;;;5.63;1.35;;;;;;;;;;5450510;26;19999;-90
2024/05/01 13:59:04;;;;;;;3.75;1.45;;;;;;;;;;5419015;26;19999;-90
2024/05/01 14:01:40;;;;;;;2.97;1.20;;;;;;;;;;5440217;26;20062;-87
2024/05/01 14:04:16;;;;;;;5.55;1.33;;;;;;;;;;5489578;26;19998;-87
2024/05/01 14:06:42;;;;;;;5.45;1.30;;;;;;;;;;5454112;26;20002;-89
2024/05/01 14:09:16;;;;;;;5.97;1.23;;;;;;;;;;5486368;26;20070;-89
2024/05/01 14:11:42;;;;;;;5.05;1.40;;;;;;;;;;5473878;26;20004;-89
2024/05/01 14:14:27;;;;;;;3.95;1.40;;;;;;;;;;5454165;26;20006;-90
2024/05/01 14:16:53;;;;;;;6.13;1.42;;;;;;;;;;5486803;26;19994;-89
2024/05/01 14:19:19;;;;;;;4.13;1.38;;;;;;;;;;5455684;26;20074;-87
2024/05/01 14:21:54;;;;;;;5.80;1.50;;;;;;;;;;5455000;26;20010;-90
2024/05/01 14:24:23;;;;;;;4.50;1.20;;;;;;;;;;5487475;26;20404;-89
2024/05/01 14:26:49;;;;;;;2.65;1.30;;;;;;;;;;5456277;26;20059;-92
2024/05/01 14:29:18;;;;;;;4.25;1.27;;;;;;;;;;5455188;26;19998;-91
2024/05/01 14:31:44;;;;;;;5.90;1.55;;;;;;;;;;5460622;26;20018;-89
2024/05/01 14:34:10;;;;;;;2.83;1.20;;;;;;;;;;5453949;26;20006;-88
2024/05/01 14:36:36;;;;;;;4.40;1.30;;;;;;;;;;5485801;26;20005;-89
2024/05/01 14:39:05;;;;;;;3.80;1.30;;;;;;;;;;5453543;26;20009;-89
2024/05/01 14:41:31;;;;;;;5.45;1.38;;;;;;;;;;5453892;26;20383;-90
2024/05/01 14:44:18;;;;;;;4.35;1.90;;;;;;;;;;5454151;26;20002;-88